Time;durP1;ratioP1;P1;durP2;ratioP2;P2;SDS_P1;SDS_P2;PMS_P1;PMS_P2;Temp;Humidity;BMP_temperature;BMP_pressure;BME280_temperature;BME280_humidity;BME280_pressure;Samples;Min_cycle;Max_cycle;Signal;HPM_P1;HPM_P2
2023/09/28 00:00:45;;;;;;;18.90;9.87;;;17.40;99.90;;;;;;4166920;28;20210;-76
2023/09/28 00:02:49;;;;;;;17.00;10.33;;;17.30;99.90;;;;;;4178084;28;20209;-76
2023/09/28 00:04:50;;;;;;;22.57;10.67;;;17.30;99.90;;;;;;4169755;28;20210;-76
2023/09/28 00:06:52;;;;;;;15.17;9.67;;;17.30;99.90;;;;;;4178453;28;20266;-76
2023/09/28 00:08:53;;;;;;;15.10;9.93;;;17.30;99.90;;;;;;4164062;28;20598;-76
2023/09/28 00:10:55;;;;;;;15.93;10.23;;;17.20;99.90;;;;;;4162521;28;20271;-76
2023/09/28 00:12:56;;;;;;;15.60;9.60;;;17.20;99.90;;;;;;4163322;28;20209;-76
2023/09/28 00:14:58;;;;;;;14.50;9.57;;;17.20;99.90;;;;;;4160898;28;20597;-76
2023/09/28 00:16:59;;;;;;;17.20;10.63;;;17.10;99.90;;;;;;4171537;28;20661;-75
2023/09/28 00:19:03;;;;;;;17.87;10.73;;;17.10;99.90;;;;;;4169117;28;20246;-75
2023/09/28 00:21:04;;;;;;;19.17;10.80;;;17.10;99.90;;;;;;4151993;28;20214;-75
2023/09/28 00:23:06;;;;;;;16.50;10.83;;;17.10;99.90;;;;;;4156307;28;20202;-76
2023/09/28 00:25:10;;;;;;;14.33;9.67;;;17.00;99.90;;;;;;4158851;28;20276;-76
2023/09/28 00:27:12;;;;;;;16.47;10.07;;;17.00;99.90;;;;;;4163819;28;20683;-76
2023/09/28 00:29:13;;;;;;;14.93;9.80;;;17.00;99.90;;;;;;4162752;28;20248;-76
2023/09/28 00:31:17;;;;;;;17.47;10.73;;;16.90;99.90;;;;;;4158945;28;20212;-76
2023/09/28 00:33:18;;;;;;;16.97;10.33;;;16.90;99.90;;;;;;4164477;28;20206;-75
2023/09/28 00:35:22;;;;;;;15.67;10.00;;;16.90;99.90;;;;;;4164114;28;20205;-76
2023/09/28 00:37:23;;;;;;;14.33;10.27;;;16.90;99.90;;;;;;4174101;28;20214;-76
2023/09/28 00:39:26;;;;;;;17.13;10.47;;;16.80;99.90;;;;;;4167087;28;20697;-75
2023/09/28 00:41:27;;;;;;;19.80;11.10;;;16.80;99.90;;;;;;4164182;28;20241;-76
2023/09/28 00:43:29;;;;;;;15.47;10.10;;;16.80;99.90;;;;;;4161807;28;20197;-76
2023/09/28 00:45:30;;;;;;;15.37;10.47;;;16.80;99.90;;;;;;4163643;28;20296;-76
2023/09/28 00:47:33;;;;;;;14.73;10.13;;;16.80;99.90;;;;;;4156209;28;20193;-76
2023/09/28 00:49:34;;;;;;;15.03;10.17;;;16.80;99.90;;;;;;4156325;28;20217;-76
2023/09/28 00:51:39;;;;;;;15.17;9.97;;;16.70;99.90;;;;;;4160629;28;20281;-76
2023/09/28 00:53:40;;;;;;;15.23;10.30;;;16.70;99.90;;;;;;4159036;28;20209;-76
2023/09/28 00:55:45;;;;;;;16.93;10.37;;;16.70;99.90;;;;;;4165722;28;20279;-76
2023/09/28 00:57:47;;;;;;;14.87;10.03;;;16.70;99.90;;;;;;4161071;28;20769;-76
2023/09/28 00:59:49;;;;;;;14.43;9.97;;;16.70;99.90;;;;;;4157550;28;20284;-76
2023/09/28 01:01:50;;;;;;;15.63;10.43;;;16.70;99.90;;;;;;4161394;28;20214;-76
2023/09/28 01:03:52;;;;;;;15.83;10.37;;;16.60;99.90;;;;;;4153172;28;20210;-76
2023/09/28 01:05:53;;;;;;;14.77;10.63;;;16.60;99.90;;;;;;4161177;28;20304;-76
2023/09/28 01:07:57;;;;;;;18.37;11.00;;;16.60;99.90;;;;;;4159704;28;20202;-76
2023/09/28 01:09:59;;;;;;;17.10;10.40;;;16.60;99.90;;;;;;4164041;28;20230;-76
2023/09/28 01:12:07;;;;;;;15.93;10.57;;;16.60;99.90;;;;;;4163213;28;20252;-76
2023/09/28 01:14:08;;;;;;;14.40;10.67;;;16.60;99.90;;;;;;4157682;28;20688;-76
2023/09/28 01:16:10;;;;;;;21.03;10.03;;;16.60;99.90;;;;;;4157912;28;20232;-76
2023/09/28 01:18:13;;;;;;;17.13;10.43;;;16.50;99.90;;;;;;4165015;28;20287;-76
2023/09/28 01:20:18;;;;;;;15.27;10.30;;;16.50;99.90;;;;;;4157257;28;20233;-76
2023/09/28 01:22:22;;;;;;;19.33;10.77;;;16.50;99.90;;;;;;4162026;28;20300;-76
2023/09/28 01:24:23;;;;;;;14.47;9.80;;;16.50;99.90;;;;;;4154238;28;20224;-76
2023/09/28 01:26:30;;;;;;;18.47;10.87;;;16.40;99.90;;;;;;4159177;28;20224;-76
2023/09/28 01:28:32;;;;;;;16.23;9.47;;;16.40;99.90;;;;;;4158380;28;20197;-76
2023/09/28 01:30:33;;;;;;;16.93;11.27;;;16.30;99.90;;;;;;4160369;28;20217;-76
2023/09/28 01:32:35;;;;;;;14.23;9.80;;;16.30;99.90;;;;;;4163221;28;20214;-76
2023/09/28 01:34:36;;;;;;;15.30;10.37;;;16.30;99.90;;;;;;4156703;28;20285;-75
2023/09/28 01:36:38;;;;;;;16.50;10.67;;;16.30;99.90;;;;;;4166074;28;20208;-76
2023/09/28 01:38:44;;;;;;;16.17;11.00;;;16.20;99.90;;;;;;4160012;28;20225;-76
2023/09/28 01:40:48;;;;;;;14.43;10.17;;;16.20;99.90;;;;;;4156418;28;20240;-75
2023/09/28 01:42:49;;;;;;;18.13;11.17;;;16.20;99.90;;;;;;4154601;28;20267;-76
2023/09/28 01:44:52;;;;;;;16.33;11.17;;;16.20;99.90;;;;;;4164446;28;20668;-76
2023/09/28 01:46:53;;;;;;;17.80;9.73;;;16.20;99.90;;;;;;4164800;28;20244;-76
2023/09/28 01:48:55;;;;;;;17.70;11.17;;;16.20;99.90;;;;;;4158497;28;20234;-76
2023/09/28 01:50:56;;;;;;;15.07;10.43;;;16.10;99.90;;;;;;4167372;28;20204;-76
2023/09/28 01:52:58;;;;;;;17.07;10.90;;;16.10;99.90;;;;;;4159923;28;20212;-76
2023/09/28 01:55:00;;;;;;;16.97;10.53;;;16.10;99.90;;;;;;4159126;28;20268;-75
2023/09/28 01:57:02;;;;;;;17.37;10.70;;;16.10;99.90;;;;;;4161220;28;20213;-76
2023/09/28 01:59:03;;;;;;;16.70;10.63;;;16.10;99.90;;;;;;4162149;28;20681;-76
2023/09/28 02:01:05;;;;;;;18.57;11.30;;;16.10;99.90;;;;;;4163541;28;20205;-76
2023/09/28 02:03:08;;;;;;;16.20;10.97;;;16.10;99.90;;;;;;4159450;28;20278;-76
2023/09/28 02:05:11;;;;;;;17.73;11.53;;;16.10;99.90;;;;;;4166626;28;20238;-76
2023/09/28 02:07:12;;;;;;;17.13;11.60;;;16.10;99.90;;;;;;4159053;28;20206;-77
2023/09/28 02:09:17;;;;;;;16.27;10.83;;;16.10;99.90;;;;;;4161863;28;20232;-76
2023/09/28 02:11:19;;;;;;;17.73;11.53;;;16.10;99.90;;;;;;4160953;28;20589;-76
2023/09/28 02:13:21;;;;;;;14.53;10.43;;;16.10;99.90;;;;;;4156101;28;20252;-76
2023/09/28 02:15:23;;;;;;;19.20;10.80;;;16.00;99.90;;;;;;4157261;28;20211;-76
2023/09/28 02:17:25;;;;;;;15.70;10.83;;;16.00;99.90;;;;;;4158417;28;20226;-76
2023/09/28 02:19:25;;;;;;;16.37;11.00;;;16.00;99.90;;;;;;4155727;28;20229;-76
2023/09/28 02:21:28;;;;;;;16.30;10.40;;;16.00;99.90;;;;;;4159428;28;20671;-76
2023/09/28 02:23:29;;;;;;;17.90;10.63;;;16.00;99.90;;;;;;4162974;28;20216;-76
2023/09/28 02:25:32;;;;;;;18.37;10.63;;;15.90;99.90;;;;;;4161183;28;20236;-76
2023/09/28 02:27:34;;;;;;;18.17;10.70;;;15.90;99.90;;;;;;4172586;28;20253;-76
2023/09/28 02:29:36;;;;;;;16.37;11.03;;;15.90;99.90;;;;;;4168433;28;20651;-76
2023/09/28 02:31:40;;;;;;;19.33;10.87;;;15.90;99.90;;;;;;4158172;28;20253;-76
2023/09/28 02:33:43;;;;;;;17.73;11.13;;;15.90;99.90;;;;;;4153165;28;20696;-76
2023/09/28 02:35:44;;;;;;;18.30;11.43;;;15.90;99.90;;;;;;4153411;28;20315;-76
2023/09/28 02:37:48;;;;;;;17.73;10.77;;;15.90;99.90;;;;;;4152840;28;20233;-76
2023/09/28 02:39:49;;;;;;;25.03;12.03;;;15.80;99.90;;;;;;4158192;28;20236;-76
2023/09/28 02:41:51;;;;;;;20.00;11.20;;;15.80;99.90;;;;;;4157694;28;20205;-76
2023/09/28 02:43:53;;;;;;;20.60;11.53;;;15.80;99.90;;;;;;4163671;28;20273;-76
2023/09/28 02:45:55;;;;;;;17.27;10.83;;;15.80;99.90;;;;;;4164052;28;20291;-76
2023/09/28 02:47:56;;;;;;;16.87;10.07;;;15.70;99.90;;;;;;4163747;28;20743;-76
2023/09/28 02:49:58;;;;;;;16.20;10.47;;;15.70;99.90;;;;;;4159726;28;20239;-76
2023/09/28 02:51:59;;;;;;;15.83;10.43;;;15.70;99.90;;;;;;4158252;28;20302;-76
2023/09/28 02:54:01;;;;;;;16.47;10.57;;;15.70;99.90;;;;;;4161853;28;20231;-76
2023/09/28 02:56:03;;;;;;;17.90;11.30;;;15.60;99.90;;;;;;4161097;28;20211;-76
2023/09/28 02:58:05;;;;;;;16.47;10.57;;;15.60;99.90;;;;;;4159660;28;20641;-76
2023/09/28 03:00:24;;;;;;;18.77;10.83;;;15.60;99.90;;;;;;4159020;28;20231;-76
2023/09/28 03:02:26;;;;;;;15.57;10.07;;;15.60;99.90;;;;;;4155553;28;20197;-76
2023/09/28 03:04:32;;;;;;;15.93;10.20;;;15.60;99.90;;;;;;4165522;28;20198;-76
2023/09/28 03:06:40;;;;;;;17.30;10.43;;;15.50;99.90;;;;;;4158011;28;20262;-76
2023/09/28 03:08:41;;;;;;;16.70;10.43;;;15.50;99.90;;;;;;4151463;28;20249;-76
2023/09/28 03:10:43;;;;;;;18.90;12.00;;;15.60;99.90;;;;;;4160708;28;20684;-76
2023/09/28 03:12:45;;;;;;;16.03;10.67;;;15.60;99.90;;;;;;4157604;28;20225;-76
2023/09/28 03:14:47;;;;;;;17.47;10.83;;;15.60;99.90;;;;;;4155496;28;20209;-74
2023/09/28 03:16:49;;;;;;;17.13;11.57;;;15.50;99.90;;;;;;4156056;28;20207;-76
2023/09/28 03:18:52;;;;;;;15.57;10.83;;;15.50;99.90;;;;;;4163736;28;20247;-76
2023/09/28 03:20:53;;;;;;;16.30;11.13;;;15.50;99.90;;;;;;4159645;28;20792;-76
2023/09/28 03:22:55;;;;;;;18.13;11.63;;;15.50;99.90;;;;;;4158677;28;20196;-76
2023/09/28 03:24:56;;;;;;;16.33;11.10;;;15.50;99.90;;;;;;4157058;28;20211;-76
2023/09/28 03:26:58;;;;;;;17.80;12.10;;;15.50;99.90;;;;;;4161486;28;20199;-76
2023/09/28 03:28:59;;;;;;;19.40;12.03;;;15.50;99.90;;;;;;4155846;28;20710;-76
2023/09/28 03:31:01;;;;;;;18.20;11.17;;;15.50;99.90;;;;;;4160598;28;20261;-76
2023/09/28 03:33:03;;;;;;;16.30;11.27;;;15.50;99.90;;;;;;4153015;28;20215;-76
2023/09/28 03:35:06;;;;;;;19.27;11.50;;;15.40;99.90;;;;;;4158149;28;20223;-76
2023/09/28 03:37:09;;;;;;;17.83;11.13;;;15.40;99.90;;;;;;4156484;28;20250;-76
2023/09/28 03:39:11;;;;;;;17.37;11.03;;;15.40;99.90;;;;;;4156686;28;20230;-76
2023/09/28 03:41:13;;;;;;;17.97;11.10;;;15.40;99.90;;;;;;4162812;28;20257;-77
2023/09/28 03:43:15;;;;;;;19.50;11.23;;;15.30;99.90;;;;;;4160818;28;20206;-76
2023/09/28 03:45:21;;;;;;;16.87;11.43;;;15.30;99.90;;;;;;4152184;28;20208;-76
2023/09/28 03:47:23;;;;;;;18.23;12.27;;;15.30;99.90;;;;;;4157499;28;20214;-75
2023/09/28 03:49:26;;;;;;;19.03;12.23;;;15.30;99.90;;;;;;4152951;28;20239;-76
2023/09/28 03:51:28;;;;;;;20.03;11.77;;;15.30;99.90;;;;;;4157153;28;20609;-76
2023/09/28 03:53:31;;;;;;;19.20;11.93;;;15.30;99.90;;;;;;4159232;28;20200;-76
2023/09/28 03:55:33;;;;;;;19.67;11.30;;;15.20;99.90;;;;;;4161862;28;20635;-76
2023/09/28 03:57:35;;;;;;;16.00;11.47;;;15.20;99.90;;;;;;4158341;28;20277;-76
2023/09/28 03:59:37;;;;;;;20.87;12.50;;;15.20;99.90;;;;;;4162187;28;20724;-77
2023/09/28 04:01:44;;;;;;;16.77;10.63;;;15.20;99.90;;;;;;4171060;28;20260;-76
2023/09/28 04:03:46;;;;;;;15.23;10.50;;;15.20;99.90;;;;;;4169678;28;20202;-76
2023/09/28 04:05:48;;;;;;;21.20;11.33;;;15.20;99.90;;;;;;4153795;28;20854;-76
2023/09/28 04:07:50;;;;;;;20.73;12.30;;;15.20;99.90;;;;;;4164139;28;20203;-76
2023/09/28 04:09:53;;;;;;;18.47;12.27;;;15.20;99.90;;;;;;4158461;28;20775;-77
2023/09/28 04:11:55;;;;;;;19.73;13.13;;;15.20;99.90;;;;;;4154300;28;20662;-76
2023/09/28 04:13:57;;;;;;;17.77;12.53;;;15.20;99.90;;;;;;4158723;28;20243;-76
2023/09/28 04:15:59;;;;;;;21.37;12.53;;;15.20;99.90;;;;;;4156517;28;20267;-76
2023/09/28 04:18:01;;;;;;;19.53;12.17;;;15.20;99.90;;;;;;4158354;28;20215;-76
2023/09/28 04:20:04;;;;;;;19.63;13.07;;;15.10;99.90;;;;;;4157134;28;20365;-76
2023/09/28 04:22:07;;;;;;;17.93;11.43;;;15.20;99.90;;;;;;4155693;28;20206;-76
2023/09/28 04:24:09;;;;;;;17.00;11.07;;;15.10;99.90;;;;;;4159890;28;20223;-76
2023/09/28 04:26:11;;;;;;;17.07;11.10;;;15.10;99.90;;;;;;4160173;28;20596;-76
2023/09/28 04:28:13;;;;;;;15.17;10.70;;;15.00;99.90;;;;;;4157279;28;20194;-77
2023/09/28 04:30:14;;;;;;;16.07;11.20;;;15.00;99.90;;;;;;4155360;28;20238;-76
2023/09/28 04:32:16;;;;;;;15.20;11.40;;;15.00;99.90;;;;;;4159962;28;20258;-76
2023/09/28 04:34:18;;;;;;;16.53;11.77;;;14.90;99.90;;;;;;4155183;28;20211;-76
2023/09/28 04:36:20;;;;;;;16.93;11.67;;;14.90;99.90;;;;;;4158994;28;20231;-76
2023/09/28 04:38:24;;;;;;;22.50;14.87;;;14.90;99.90;;;;;;4155315;28;20223;-76
2023/09/28 04:40:26;;;;;;;26.30;16.63;;;14.90;99.90;;;;;;4157242;28;20301;-76
2023/09/28 04:42:28;;;;;;;24.37;14.50;;;14.90;99.90;;;;;;4151367;28;20894;-76
2023/09/28 04:44:30;;;;;;;20.43;13.00;;;14.90;99.90;;;;;;4157365;28;20697;-76
2023/09/28 04:46:32;;;;;;;20.00;12.23;;;14.90;99.90;;;;;;4157346;28;20211;-77
2023/09/28 04:48:34;;;;;;;17.77;12.23;;;14.90;99.90;;;;;;4155557;28;20608;-76
2023/09/28 04:50:37;;;;;;;18.97;13.00;;;14.80;99.90;;;;;;4155226;28;20261;-76
2023/09/28 04:52:39;;;;;;;17.17;11.77;;;14.80;99.90;;;;;;4156066;28;20314;-77
2023/09/28 04:54:43;;;;;;;17.23;11.70;;;14.80;99.90;;;;;;4155761;28;20207;-77
2023/09/28 04:56:45;;;;;;;17.13;11.97;;;14.70;99.90;;;;;;4156596;28;20219;-76
2023/09/28 04:58:47;;;;;;;15.43;11.23;;;14.70;99.90;;;;;;4154199;28;20951;-76
2023/09/28 05:00:49;;;;;;;16.17;11.70;;;14.70;99.90;;;;;;4153057;28;20230;-76
2023/09/28 05:02:51;;;;;;;17.83;12.33;;;14.70;99.90;;;;;;4156208;28;20277;-76
2023/09/28 05:04:54;;;;;;;18.83;13.00;;;14.70;99.90;;;;;;4153006;28;20254;-76
2023/09/28 05:06:56;;;;;;;19.27;12.63;;;14.70;99.90;;;;;;4155132;28;20724;-77
2023/09/28 05:08:58;;;;;;;19.13;12.23;;;14.60;99.90;;;;;;4155807;28;20231;-77
2023/09/28 05:11:02;;;;;;;18.00;12.70;;;14.60;99.90;;;;;;4155689;28;20644;-77
2023/09/28 05:13:04;;;;;;;19.57;11.80;;;14.60;99.90;;;;;;4155804;28;20671;-77
2023/09/28 05:15:08;;;;;;;16.93;11.90;;;14.60;99.90;;;;;;4155526;28;20211;-76
2023/09/28 05:17:09;;;;;;;19.60;12.47;;;14.60;99.90;;;;;;4157195;28;20211;-77
2023/09/28 05:19:11;;;;;;;18.70;12.03;;;14.60;99.90;;;;;;4160563;28;20605;-78
2023/09/28 05:21:13;;;;;;;23.40;12.37;;;14.60;99.90;;;;;;4158130;28;20267;-78
2023/09/28 05:23:15;;;;;;;21.50;13.53;;;14.60;99.90;;;;;;4159092;28;20591;-76
2023/09/28 05:25:17;;;;;;;18.80;12.20;;;14.60;99.90;;;;;;4156231;28;20239;-77
2023/09/28 05:27:19;;;;;;;18.43;11.60;;;14.60;99.90;;;;;;4157149;28;20215;-76
2023/09/28 05:29:22;;;;;;;18.67;12.40;;;14.60;99.90;;;;;;4161392;28;20285;-76
2023/09/28 05:31:25;;;;;;;19.37;13.03;;;14.60;99.90;;;;;;4159624;28;20641;-76
2023/09/28 05:33:28;;;;;;;18.67;13.40;;;14.60;99.90;;;;;;4149958;28;20770;-76
2023/09/28 05:35:30;;;;;;;22.57;13.23;;;14.60;99.90;;;;;;4156662;28;20211;-76
2023/09/28 05:37:32;;;;;;;20.57;13.57;;;14.70;99.90;;;;;;4157516;28;20204;-76
2023/09/28 05:39:38;;;;;;;20.00;12.87;;;14.70;99.90;;;;;;4158130;28;20231;-77
2023/09/28 05:41:39;;;;;;;22.03;13.67;;;14.70;99.90;;;;;;4157492;28;20277;-76
2023/09/28 05:43:42;;;;;;;21.47;13.57;;;14.80;99.90;;;;;;4157092;28;20207;-76
2023/09/28 05:45:43;;;;;;;20.97;12.93;;;14.80;99.90;;;;;;4157996;28;20207;-76
2023/09/28 05:47:46;;;;;;;18.47;12.47;;;14.80;99.90;;;;;;4155616;28;20253;-76
2023/09/28 05:49:49;;;;;;;18.37;12.83;;;14.80;99.90;;;;;;4160066;28;20216;-76
2023/09/28 05:51:52;;;;;;;19.53;13.30;;;14.90;99.90;;;;;;4156337;28;20219;-76
2023/09/28 05:53:54;;;;;;;20.20;13.80;;;14.90;99.90;;;;;;4153356;28;20239;-76
2023/09/28 05:55:56;;;;;;;21.93;13.63;;;15.00;99.90;;;;;;4156055;28;20274;-76
2023/09/28 05:57:57;;;;;;;17.77;12.17;;;15.00;99.90;;;;;;4157380;28;20287;-76
2023/09/28 06:00:06;;;;;;;20.93;12.83;;;15.00;99.90;;;;;;4150647;28;20595;-76
2023/09/28 06:02:09;;;;;;;21.90;13.43;;;15.10;99.90;;;;;;4155338;28;20204;-76
2023/09/28 06:04:11;;;;;;;18.93;12.70;;;15.10;99.90;;;;;;4157279;28;20234;-76
2023/09/28 06:06:14;;;;;;;25.87;14.80;;;15.20;99.90;;;;;;4154897;28;20247;-76
2023/09/28 06:08:18;;;;;;;21.17;13.83;;;15.20;99.90;;;;;;4156040;28;20206;-76
2023/09/28 06:10:21;;;;;;;25.43;14.43;;;15.30;99.90;;;;;;4157640;28;20270;-77
2023/09/28 06:12:23;;;;;;;20.50;14.10;;;15.30;99.90;;;;;;4158842;28;20208;-77
2023/09/28 06:14:24;;;;;;;21.63;14.00;;;15.30;99.90;;;;;;4159125;28;20207;-77
2023/09/28 06:16:28;;;;;;;22.27;14.10;;;15.40;99.90;;;;;;4158372;28;20294;-76
2023/09/28 06:18:29;;;;;;;21.67;14.87;;;15.50;99.90;;;;;;4161954;28;20223;-77
2023/09/28 06:20:33;;;;;;;24.23;14.40;;;15.50;99.90;;;;;;4159808;28;20282;-77
2023/09/28 06:22:35;;;;;;;21.50;13.07;;;15.50;99.90;;;;;;4158126;28;20212;-76
2023/09/28 06:24:38;;;;;;;24.20;13.60;;;15.60;99.90;;;;;;4155675;28;20200;-77
2023/09/28 06:26:41;;;;;;;22.77;13.97;;;15.60;99.90;;;;;;4155780;28;20212;-77
2023/09/28 06:28:43;;;;;;;21.50;13.77;;;15.70;99.90;;;;;;4153479;28;20784;-76
2023/09/28 06:30:45;;;;;;;24.80;14.13;;;15.70;99.90;;;;;;4155825;28;20209;-76
2023/09/28 06:32:48;;;;;;;25.07;14.50;;;15.80;99.90;;;;;;4157610;28;20261;-76
2023/09/28 06:34:50;;;;;;;27.07;15.70;;;15.80;99.90;;;;;;4157215;28;20215;-76
2023/09/28 06:36:53;;;;;;;26.67;15.97;;;15.90;99.90;;;;;;4155180;28;20215;-77
2023/09/28 06:38:55;;;;;;;28.37;15.93;;;15.90;99.90;;;;;;4162468;28;20232;-77
2023/09/28 06:40:57;;;;;;;23.77;15.53;;;16.00;99.90;;;;;;4158547;28;20217;-77
2023/09/28 06:42:59;;;;;;;26.83;15.97;;;16.00;99.90;;;;;;4154775;28;20201;-77
2023/09/28 06:45:01;;;;;;;23.83;14.33;;;16.00;99.90;;;;;;4156800;28;20788;-78
2023/09/28 06:47:03;;;;;;;21.20;13.83;;;16.10;99.90;;;;;;4161151;28;20217;-77
2023/09/28 06:49:06;;;;;;;21.47;14.30;;;16.20;99.90;;;;;;4156883;28;20734;-77
2023/09/28 06:51:08;;;;;;;22.57;13.87;;;16.20;99.90;;;;;;4153266;28;20212;-77
2023/09/28 06:53:10;;;;;;;19.10;12.73;;;16.30;99.90;;;;;;4155826;28;20242;-77
2023/09/28 06:55:12;;;;;;;24.53;14.77;;;16.30;99.90;;;;;;4155548;28;20209;-77
2023/09/28 06:57:13;;;;;;;19.73;13.53;;;16.30;99.90;;;;;;4159840;28;20263;-77
2023/09/28 06:59:16;;;;;;;23.83;13.63;;;16.40;99.90;;;;;;4155307;28;20286;-77
2023/09/28 07:01:17;;;;;;;29.33;15.30;;;16.40;99.90;;;;;;4155256;28;20208;-77
2023/09/28 07:03:20;;;;;;;22.20;14.17;;;16.50;99.90;;;;;;4157228;28;20619;-77
2023/09/28 07:05:23;;;;;;;19.87;12.97;;;16.50;99.90;;;;;;4153548;28;20559;-77
2023/09/28 07:07:29;;;;;;;22.13;13.60;;;16.50;99.90;;;;;;4160297;28;20233;-77
2023/09/28 07:09:31;;;;;;;27.03;14.77;;;16.50;99.90;;;;;;4156797;28;20272;-77
2023/09/28 07:11:34;;;;;;;21.83;12.60;;;16.60;99.90;;;;;;4155426;28;20291;-77
2023/09/28 07:13:37;;;;;;;20.47;13.17;;;16.60;99.90;;;;;;4158168;28;20212;-77
2023/09/28 07:15:41;;;;;;;20.80;12.17;;;16.60;99.90;;;;;;4155316;28;20210;-77
2023/09/28 07:17:43;;;;;;;19.00;12.37;;;16.60;99.90;;;;;;4161718;28;20263;-77
2023/09/28 07:19:44;;;;;;;19.17;13.43;;;16.60;99.90;;;;;;4164467;28;20234;-77
2023/09/28 07:21:48;;;;;;;21.70;15.40;;;16.70;99.90;;;;;;4165462;28;20201;-78
2023/09/28 07:23:50;;;;;;;22.13;13.40;;;16.70;99.90;;;;;;4156657;28;20257;-78
2023/09/28 07:25:52;;;;;;;23.77;14.07;;;16.80;99.90;;;;;;4162291;28;20254;-78
2023/09/28 07:27:53;;;;;;;21.60;13.27;;;16.80;99.90;;;;;;4163715;28;20268;-78
2023/09/28 07:29:56;;;;;;;20.43;13.67;;;16.80;99.90;;;;;;4159574;28;20329;-78
2023/09/28 07:31:58;;;;;;;21.23;13.67;;;16.80;99.90;;;;;;4164271;28;20242;-78
2023/09/28 07:34:01;;;;;;;20.13;13.23;;;16.80;99.90;;;;;;4160989;28;20269;-78
2023/09/28 07:36:05;;;;;;;22.67;13.30;;;16.90;99.90;;;;;;4160282;28;20232;-77
2023/09/28 07:38:08;;;;;;;19.67;12.00;;;16.90;99.90;;;;;;4158387;28;20304;-77
2023/09/28 07:40:12;;;;;;;20.07;12.93;;;16.90;99.90;;;;;;4161180;28;20735;-78
2023/09/28 07:42:13;;;;;;;20.00;12.17;;;16.90;99.90;;;;;;4158564;28;20213;-78
2023/09/28 07:44:15;;;;;;;20.73;12.60;;;17.00;99.90;;;;;;4159352;28;20271;-78
2023/09/28 07:46:17;;;;;;;17.87;12.63;;;17.00;99.90;;;;;;4156057;28;20232;-78
2023/09/28 07:48:19;;;;;;;17.73;12.33;;;17.10;99.90;;;;;;4158580;28;20222;-78
2023/09/28 07:50:21;;;;;;;18.07;12.07;;;17.10;99.90;;;;;;4159970;28;20288;-78
2023/09/28 07:52:23;;;;;;;18.63;12.47;;;17.20;99.90;;;;;;4157073;28;20234;-78
2023/09/28 07:54:26;;;;;;;20.13;12.67;;;17.30;99.90;;;;;;4160987;28;20269;-78
2023/09/28 07:56:28;;;;;;;20.83;12.30;;;17.30;99.90;;;;;;4160483;28;20221;-78
2023/09/28 07:58:30;;;;;;;21.20;12.17;;;17.30;99.90;;;;;;4155265;28;20207;-78
2023/09/28 08:00:33;;;;;;;19.00;11.57;;;17.40;99.90;;;;;;4156085;28;20225;-78
2023/09/28 08:02:34;;;;;;;19.33;11.77;;;17.50;99.90;;;;;;4155518;28;20214;-78
2023/09/28 08:04:36;;;;;;;18.97;11.20;;;17.50;99.90;;;;;;4160243;28;20210;-78
2023/09/28 08:06:40;;;;;;;19.47;11.87;;;17.60;99.90;;;;;;4159246;28;20729;-78
2023/09/28 08:08:42;;;;;;;20.23;11.70;;;17.70;99.90;;;;;;4155822;28;20747;-78
2023/09/28 08:10:47;;;;;;;16.80;11.77;;;17.80;99.90;;;;;;4155039;28;20217;-78
2023/09/28 08:12:49;;;;;;;19.57;11.47;;;17.90;99.90;;;;;;4154486;28;20222;-78
2023/09/28 08:14:52;;;;;;;17.57;11.63;;;18.00;99.90;;;;;;4155408;28;20241;-78
2023/09/28 08:16:54;;;;;;;17.20;12.00;;;18.10;99.90;;;;;;4157760;28;20662;-78
2023/09/28 08:18:56;;;;;;;17.37;11.50;;;18.20;99.90;;;;;;4164371;28;20233;-78
2023/09/28 08:20:58;;;;;;;17.07;10.63;;;18.30;99.90;;;;;;4162214;28;20259;-78
2023/09/28 08:23:00;;;;;;;17.40;10.93;;;18.40;99.90;;;;;;4163446;28;20698;-78
2023/09/28 08:25:05;;;;;;;15.73;10.57;;;18.50;99.90;;;;;;4162821;28;20702;-79
2023/09/28 08:27:09;;;;;;;17.53;11.00;;;18.60;99.90;;;;;;4160529;28;20218;-78
2023/09/28 08:29:12;;;;;;;20.73;10.10;;;18.60;99.90;;;;;;4158286;28;20257;-78
2023/09/28 08:31:14;;;;;;;14.70;10.27;;;18.80;99.90;;;;;;4159126;28;20230;-78
2023/09/28 08:33:16;;;;;;;18.03;10.60;;;18.90;99.90;;;;;;4158883;28;20686;-78
2023/09/28 08:35:18;;;;;;;15.77;9.80;;;19.00;99.90;;;;;;4159746;28;20207;-78
2023/09/28 08:37:20;;;;;;;17.50;10.13;;;19.00;99.90;;;;;;4156850;28;20211;-78
2023/09/28 08:39:22;;;;;;;17.70;10.83;;;19.10;99.90;;;;;;4158847;28;20222;-78
2023/09/28 08:41:30;;;;;;;18.77;9.20;;;19.20;99.90;;;;;;4153587;28;20261;-78
2023/09/28 08:43:40;;;;;;;15.27;9.50;;;19.20;99.90;;;;;;4154412;28;20207;-78
2023/09/28 08:45:45;;;;;;;16.07;9.70;;;19.30;99.90;;;;;;4152466;28;20207;-78
2023/09/28 08:47:49;;;;;;;16.60;9.10;;;19.30;99.90;;;;;;4149703;28;20273;-78
2023/09/28 08:49:51;;;;;;;17.87;9.03;;;19.40;99.90;;;;;;4151766;28;20229;-78
2023/09/28 08:51:55;;;;;;;11.77;8.30;;;19.50;99.90;;;;;;4154826;28;20211;-78
2023/09/28 08:53:58;;;;;;;15.23;8.87;;;19.60;99.90;;;;;;4155505;28;20221;-78
2023/09/28 08:56:00;;;;;;;11.80;8.10;;;19.60;99.90;;;;;;4159585;28;20301;-78
2023/09/28 08:58:03;;;;;;;18.83;8.70;;;19.70;99.90;;;;;;4157363;28;20207;-78
2023/09/28 09:00:13;;;;;;;15.43;8.70;;;19.80;99.90;;;;;;4169571;28;20939;-78
2023/09/28 09:02:17;;;;;;;19.10;7.77;;;19.90;99.90;;;;;;4156191;28;20693;-78
2023/09/28 09:04:19;;;;;;;15.07;8.27;;;19.90;99.90;;;;;;4154418;28;20290;-78
2023/09/28 09:06:21;;;;;;;10.67;7.43;;;20.00;99.90;;;;;;4165934;28;20245;-80
2023/09/28 09:08:25;;;;;;;12.47;7.90;;;20.10;99.90;;;;;;4165739;28;20202;-80
2023/09/28 09:10:28;;;;;;;15.57;7.83;;;20.30;99.90;;;;;;4163333;28;20261;-80
2023/09/28 09:12:32;;;;;;;10.37;6.77;;;20.40;99.90;;;;;;4164794;28;20216;-80
2023/09/28 09:14:34;;;;;;;8.90;6.60;;;20.50;99.90;;;;;;4161430;28;20896;-80
2023/09/28 09:16:37;;;;;;;8.00;6.03;;;20.60;99.90;;;;;;4166068;28;20847;-80
2023/09/28 09:18:39;;;;;;;8.20;5.80;;;20.70;99.90;;;;;;4159025;28;20216;-80
2023/09/28 09:20:41;;;;;;;11.60;5.60;;;20.80;99.90;;;;;;4163620;28;20287;-80
2023/09/28 09:22:44;;;;;;;10.47;5.50;;;20.90;99.90;;;;;;4165751;28;20208;-80
2023/09/28 09:24:54;;;;;;;8.53;4.73;;;21.10;99.90;;;;;;4162787;28;20263;-80
2023/09/28 09:26:56;;;;;;;7.13;4.97;;;21.20;99.90;;;;;;4161809;28;20271;-80
2023/09/28 09:28:58;;;;;;;6.27;4.67;;;21.20;99.90;;;;;;4161123;28;20282;-80
2023/09/28 09:31:03;;;;;;;8.40;4.70;;;21.30;99.90;;;;;;4160095;28;20230;-80
2023/09/28 09:33:08;;;;;;;7.37;4.47;;;21.50;99.90;;;;;;4161717;28;20214;-80
2023/09/28 09:35:11;;;;;;;7.23;4.47;;;21.60;99.90;;;;;;4162607;28;20210;-80
2023/09/28 09:37:14;;;;;;;7.30;4.30;;;21.70;99.90;;;;;;4170149;28;20215;-80
2023/09/28 09:39:23;;;;;;;9.00;4.57;;;21.80;99.90;;;;;;4158795;28;20222;-80
2023/09/28 09:41:25;;;;;;;7.93;4.13;;;21.90;99.90;;;;;;4157884;28;20230;-80
2023/09/28 09:43:31;;;;;;;6.60;4.27;;;22.00;99.90;;;;;;4163134;28;20206;-80
2023/09/28 09:45:38;;;;;;;5.00;4.20;;;22.10;99.90;;;;;;4165089;28;20219;-80
2023/09/28 09:47:47;;;;;;;7.23;4.77;;;22.20;99.90;;;;;;4160029;28;20254;-80
2023/09/28 09:49:53;;;;;;;7.10;4.37;;;22.40;99.90;;;;;;4165884;28;20724;-80
2023/09/28 09:51:55;;;;;;;7.07;4.40;;;22.40;99.90;;;;;;4164895;28;20210;-80
2023/09/28 09:53:57;;;;;;;5.97;4.53;;;22.50;99.90;;;;;;4163304;28;20218;-80
2023/09/28 09:55:59;;;;;;;9.17;4.57;;;22.60;99.90;;;;;;4165094;28;20206;-80
2023/09/28 09:58:02;;;;;;;5.93;4.17;;;22.60;99.90;;;;;;4163868;28;20700;-80
2023/09/28 10:00:09;;;;;;;9.20;3.80;;;22.70;99.90;;;;;;4159048;28;20238;-80
2023/09/28 10:02:22;;;;;;;9.07;4.60;;;22.70;99.90;;;;;;4162534;28;20207;-80
2023/09/28 10:04:26;;;;;;;5.60;4.17;;;22.80;99.90;;;;;;4161130;28;20212;-80
2023/09/28 10:06:29;;;;;;;6.40;4.10;;;22.80;99.90;;;;;;4159008;28;20207;-80
2023/09/28 10:08:34;;;;;;;7.77;4.70;;;22.80;99.90;;;;;;4164245;28;20211;-80
2023/09/28 10:10:38;;;;;;;6.30;4.40;;;22.90;99.90;;;;;;4159484;28;20207;-80
2023/09/28 10:12:41;;;;;;;5.83;4.10;;;22.80;99.90;;;;;;4164151;28;20195;-80
2023/09/28 10:14:43;;;;;;;7.90;4.20;;;22.90;99.90;;;;;;4161242;28;20270;-80
2023/09/28 10:16:48;;;;;;;6.03;4.03;;;22.90;99.90;;;;;;4179670;28;20256;-80
2023/09/28 10:18:51;;;;;;;5.70;4.53;;;22.90;99.90;;;;;;4163508;28;20223;-81
2023/09/28 10:20:54;;;;;;;6.70;4.23;;;22.90;99.90;;;;;;4158147;28;20274;-80
2023/09/28 10:22:57;;;;;;;5.17;4.20;;;23.00;99.90;;;;;;4160066;28;20206;-80
2023/09/28 10:25:00;;;;;;;4.33;3.83;;;23.00;99.90;;;;;;4162245;28;20204;-80